Time;durP1;ratioP1;P1;durP2;ratioP2;P2;SDS_P1;SDS_P2;PMS_P1;PMS_P2;Temp;Humidity;BMP_temperature;BMP_pressure;BME280_temperature;BME280_humidity;BME280_pressure;Samples;Min_cycle;Max_cycle;Signal;HPM_P1;HPM_P2
2022/07/24 00:01:27;;;;;;;;;;;16.20;99.90;;;;;;5012456;28;19936;-71
2022/07/24 00:03:53;;;;;;;;;;;16.20;99.90;;;;;;5017470;28;19921;-72
2022/07/24 00:06:18;;;;;;;;;;;16.20;99.90;;;;;;5012908;28;19937;-71
2022/07/24 00:08:44;;;;;;;;;;;16.10;99.90;;;;;;5013320;28;19921;-71
2022/07/24 00:11:10;;;;;;;;;;;16.10;99.90;;;;;;5011790;28;19936;-71
2022/07/24 00:13:35;;;;;;;;;;;16.00;99.90;;;;;;5010514;28;19960;-71
2022/07/24 00:16:01;;;;;;;;;;;16.00;99.90;;;;;;4991692;28;19928;-71
2022/07/24 00:18:26;;;;;;;;;;;16.00;99.90;;;;;;5014658;28;19922;-70
2022/07/24 00:20:52;;;;;;;;;;;15.90;99.90;;;;;;5016209;28;19928;-70
2022/07/24 00:23:18;;;;;;;;;;;15.90;99.90;;;;;;5015583;28;19975;-70
2022/07/24 00:25:43;;;;;;;;;;;15.90;99.90;;;;;;5009900;28;19928;-71
2022/07/24 00:28:09;;;;;;;;;;;15.90;99.90;;;;;;5015244;28;19925;-71
2022/07/24 00:30:35;;;;;;;;;;;15.90;99.90;;;;;;5013740;28;19928;-71
2022/07/24 00:33:01;;;;;;;;;;;15.90;99.90;;;;;;5016422;28;19955;-71
2022/07/24 00:35:26;;;;;;;;;;;15.90;99.90;;;;;;5014306;28;19929;-71
2022/07/24 00:37:53;;;;;;;;;;;15.80;99.90;;;;;;5011990;28;19921;-72
2022/07/24 00:40:18;;;;;;;;;;;15.80;99.90;;;;;;5019234;28;19937;-72
2022/07/24 00:42:44;;;;;;;;;;;15.80;99.90;;;;;;4998678;28;19925;-71
2022/07/24 00:45:10;;;;;;;;;;;15.80;99.90;;;;;;5017929;28;19980;-71
2022/07/24 00:47:36;;;;;;;;;;;15.80;99.90;;;;;;5012340;28;19926;-71
2022/07/24 00:50:03;;;;;;;;;;;15.80;99.90;;;;;;5014485;28;19927;-71
2022/07/24 00:52:29;;;;;;;;;;;15.80;99.90;;;;;;4998727;28;20024;-71
2022/07/24 00:54:55;;;;;;;;;;;15.80;99.90;;;;;;5015025;28;20020;-71
2022/07/24 00:57:20;;;;;;;;;;;15.80;99.90;;;;;;5013264;28;19921;-72
2022/07/24 00:59:46;;;;;;;;;;;15.70;99.90;;;;;;5031612;28;19929;-72
2022/07/24 01:02:12;;;;;;;;;;;15.70;99.90;;;;;;5016307;28;19921;-72
2022/07/24 01:04:37;;;;;;;;;;;15.70;99.90;;;;;;5009078;28;19921;-72
2022/07/24 01:07:03;;;;;;;;;;;15.70;99.90;;;;;;5014761;28;20024;-72
2022/07/24 01:09:29;;;;;;;;;;;15.70;99.90;;;;;;5016198;28;19929;-71
2022/07/24 01:11:55;;;;;;;;;;;15.70;99.90;;;;;;4999419;28;19921;-70
2022/07/24 01:14:20;;;;;;;;;;;15.70;99.90;;;;;;5014123;28;19967;-70
2022/07/24 01:16:46;;;;;;;;;;;15.70;99.90;;;;;;5007486;28;19928;-71
2022/07/24 01:19:12;;;;;;;;;;;15.70;99.90;;;;;;5015381;28;19972;-71
2022/07/24 01:21:38;;;;;;;;;;;15.60;99.90;;;;;;5016788;28;19928;-70
2022/07/24 01:24:04;;;;;;;;;;;15.60;99.90;;;;;;5016095;28;20670;-71
2022/07/24 01:26:30;;;;;;;;;;;15.60;99.90;;;;;;5009032;28;20014;-71
2022/07/24 01:28:55;;;;;;;;;;;15.60;99.90;;;;;;5008185;28;20083;-71
2022/07/24 01:31:21;;;;;;;;;;;15.70;99.90;;;;;;5013248;28;19929;-72
2022/07/24 01:33:47;;;;;;;;;;;15.60;99.90;;;;;;5010822;28;19921;-71
2022/07/24 01:36:12;;;;;;;;;;;15.60;99.90;;;;;;5010810;28;19925;-72
2022/07/24 01:38:38;;;;;;;;;;;15.60;99.90;;;;;;5015181;28;19921;-72
2022/07/24 01:41:04;;;;;;;;;;;15.60;99.90;;;;;;5013590;28;19930;-70
2022/07/24 01:43:29;;;;;;;;;;;15.60;99.90;;;;;;5014050;28;19925;-72
2022/07/24 01:45:55;;;;;;;;;;;15.60;99.90;;;;;;5011251;28;19921;-72
2022/07/24 01:48:20;;;;;;;;;;;15.60;99.90;;;;;;5028412;28;19928;-71
2022/07/24 01:50:46;;;;;;;;;;;15.60;99.90;;;;;;5015408;28;19922;-71
2022/07/24 01:53:12;;;;;;;;;;;15.60;99.90;;;;;;5016996;28;19925;-71
2022/07/24 01:55:37;;;;;;;;;;;15.60;99.90;;;;;;5011183;28;19964;-71
2022/07/24 01:58:03;;;;;;;;;;;15.60;99.90;;;;;;5015566;28;19921;-71
2022/07/24 02:00:29;;;;;;;;;;;15.60;99.90;;;;;;4997472;28;19925;-71
2022/07/24 02:02:54;;;;;;;;;;;15.60;99.90;;;;;;5016855;28;19929;-71
2022/07/24 02:05:20;;;;;;;;;;;15.60;99.90;;;;;;5007883;28;19926;-71
2022/07/24 02:07:53;;;;;;;;;;;15.60;99.90;;;;;;5012655;28;19921;-71
2022/07/24 02:10:19;;;;;;;;;;;15.60;99.90;;;;;;5013731;28;20012;-71
2022/07/24 02:12:44;;;;;;;;;;;15.60;99.90;;;;;;5015382;28;20062;-72
2022/07/24 02:15:10;;;;;;;;;;;15.60;99.90;;;;;;5016363;28;20030;-71
2022/07/24 02:17:35;;;;;;;;;;;15.60;99.90;;;;;;5003416;28;19921;-72
2022/07/24 02:20:01;;;;;;;;;;;15.60;99.90;;;;;;5015657;28;19921;-72
2022/07/24 02:22:27;;;;;;;;;;;15.60;99.90;;;;;;5014608;28;19930;-71
2022/07/24 02:24:52;;;;;;;;;;;15.60;99.90;;;;;;5014264;28;19941;-71
2022/07/24 02:27:18;;;;;;;;;;;15.60;99.90;;;;;;5012940;28;19964;-72
2022/07/24 02:29:43;;;;;;;;;;;15.50;99.90;;;;;;5016061;28;20372;-71
2022/07/24 02:32:09;;;;;;;;;;;15.60;99.90;;;;;;5014889;28;20548;-71
2022/07/24 02:34:35;;;;;;;;;;;15.50;99.90;;;;;;5007614;28;19940;-70
2022/07/24 02:37:00;;;;;;;;;;;15.50;99.90;;;;;;5010271;28;20007;-70
2022/07/24 02:39:26;;;;;;;;;;;15.50;99.90;;;;;;5010544;28;19925;-71
2022/07/24 02:41:51;;;;;;;;;;;15.60;99.90;;;;;;4996913;28;20006;-71
2022/07/24 02:44:17;;;;;;;;;;;15.50;99.90;;;;;;5012106;28;20055;-71
2022/07/24 02:46:43;;;;;;;;;;;15.50;99.90;;;;;;5012672;28;19925;-71
2022/07/24 02:49:08;;;;;;;;;;;15.60;99.90;;;;;;5012685;28;19932;-70
2022/07/24 02:51:34;;;;;;;;;;;15.60;99.90;;;;;;5012351;28;19921;-70
2022/07/24 02:53:59;;;;;;;;;;;15.50;99.90;;;;;;5016312;28;19921;-71
2022/07/24 02:56:25;;;;;;;;;;;15.60;99.90;;;;;;5008678;28;20048;-71
2022/07/24 02:58:50;;;;;;;;;;;15.60;99.90;;;;;;5011053;28;19925;-71
2022/07/24 03:01:16;;;;;;;;;;;15.60;99.90;;;;;;5010051;28;19921;-72
2022/07/24 03:03:41;;;;;;;;;;;15.50;99.90;;;;;;5007495;28;19975;-72
2022/07/24 03:06:07;;;;;;;;;;;15.50;99.90;;;;;;5009937;28;20434;-72
2022/07/24 03:08:33;;;;;;;;;;;15.60;99.90;;;;;;5008854;28;19929;-72
2022/07/24 03:10:58;;;;;;;;;;;15.50;99.90;;;;;;5005478;28;20438;-71
2022/07/24 03:13:24;;;;;;;;;;;15.50;99.90;;;;;;5011823;28;20380;-71
2022/07/24 03:15:50;;;;;;;;;;;15.50;99.90;;;;;;5010251;28;20670;-71
2022/07/24 03:18:15;;;;;;;;;;;15.50;99.90;;;;;;5010800;28;19922;-72
2022/07/24 03:20:41;;;;;;;;;;;15.50;99.90;;;;;;5011459;28;20384;-72
2022/07/24 03:23:06;;;;;;;;;;;15.50;99.90;;;;;;5013767;28;20491;-72
2022/07/24 03:25:32;;;;;;;;;;;15.50;99.90;;;;;;5014712;28;20299;-71
2022/07/24 03:27:57;;;;;;;;;;;15.50;99.90;;;;;;5013647;28;20368;-71
2022/07/24 03:30:23;;;;;;;;;;;15.40;99.90;;;;;;5016509;28;20045;-71
2022/07/24 03:32:49;;;;;;;;;;;15.40;99.90;;;;;;5013810;28;20808;-71
2022/07/24 03:35:14;;;;;;;;;;;15.40;99.90;;;;;;5013392;28;20361;-71
2022/07/24 03:37:40;;;;;;;;;;;15.40;99.90;;;;;;5006521;28;19929;-70
2022/07/24 03:40:06;;;;;;;;;;;15.40;99.90;;;;;;5010286;28;19925;-71
2022/07/24 03:42:31;;;;;;;;;;;15.40;99.90;;;;;;5012275;28;20281;-72
2022/07/24 03:44:57;;;;;;;;;;;15.40;99.90;;;;;;5010680;28;22191;-71
2022/07/24 03:47:22;;;;;;;;;;;15.40;99.90;;;;;;5010137;28;19921;-71
2022/07/24 03:49:48;;;;;;;;;;;15.40;99.90;;;;;;5013479;28;19925;-71
2022/07/24 03:52:13;;;;;;;;;;;15.40;99.90;;;;;;5009623;28;20312;-71
2022/07/24 03:54:39;;;;;;;;;;;15.50;99.90;;;;;;5011196;28;19976;-70
2022/07/24 03:57:06;;;;;;;;;;;15.50;99.90;;;;;;5012893;28;20067;-71
2022/07/24 03:59:31;;;;;;;;;;;15.50;99.90;;;;;;5012425;28;20059;-71
2022/07/24 04:01:57;;;;;;;;;;;15.50;99.90;;;;;;5012574;28;20007;-71
2022/07/24 04:04:22;;;;;;;;;;;15.50;99.90;;;;;;5013265;28;19922;-71
2022/07/24 04:06:48;;;;;;;;;;;15.50;99.90;;;;;;5008449;28;20222;-71
2022/07/24 04:09:14;;;;;;;;;;;15.50;99.90;;;;;;4995687;28;19921;-71
2022/07/24 04:11:39;;;;;;;;;;;15.50;99.90;;;;;;5014129;28;19925;-72
2022/07/24 04:14:05;;;;;;;;;;;15.50;99.90;;;;;;5014412;28;19921;-72
2022/07/24 04:16:30;;;;;;;;;;;15.50;99.90;;;;;;5016498;28;19985;-72
2022/07/24 04:18:56;;;;;;;;;;;15.50;99.90;;;;;;5016285;28;19937;-72
2022/07/24 04:21:22;;;;;;;;;;;15.50;99.90;;;;;;5018021;28;20288;-71
2022/07/24 04:23:47;;;;;;;;;;;15.50;99.90;;;;;;5018076;28;19928;-71
2022/07/24 04:26:13;;;;;;;;;;;15.50;99.90;;;;;;5011193;28;19921;-71
2022/07/24 04:28:38;;;;;;;;;;;15.50;99.90;;;;;;5013048;28;19983;-71
2022/07/24 04:31:04;;;;;;;;;;;15.60;99.90;;;;;;5017258;28;19925;-71
2022/07/24 04:33:30;;;;;;;;;;;15.60;99.90;;;;;;5012622;28;19975;-72
2022/07/24 04:35:55;;;;;;;;;;;15.60;99.90;;;;;;5009701;28;19935;-71
2022/07/24 04:38:21;;;;;;;;;;;15.60;99.90;;;;;;5015561;28;19929;-72
2022/07/24 04:40:46;;;;;;;;;;;15.60;99.90;;;;;;5015115;28;19925;-71
2022/07/24 04:43:12;;;;;;;;;;;15.60;99.90;;;;;;5009970;28;20004;-72
2022/07/24 04:45:38;;;;;;;;;;;15.60;99.90;;;;;;5014519;28;19925;-72
2022/07/24 04:48:03;;;;;;;;;;;15.70;99.90;;;;;;5009934;28;19921;-71
2022/07/24 04:50:29;;;;;;;;;;;15.70;99.90;;;;;;5014739;28;19932;-72
2022/07/24 04:52:55;;;;;;;;;;;15.70;99.90;;;;;;5012650;28;19932;-71
2022/07/24 04:55:20;;;;;;;;;;;15.70;99.90;;;;;;5012615;28;19967;-72
2022/07/24 04:57:46;;;;;;;;;;;15.80;99.90;;;;;;5015700;28;19925;-72
2022/07/24 05:00:12;;;;;;;;;;;15.80;99.90;;;;;;5014751;28;19980;-70
2022/07/24 05:02:38;;;;;;;;;;;15.80;99.90;;;;;;5012285;28;19934;-70
2022/07/24 05:05:04;;;;;;;;;;;15.90;99.90;;;;;;5000055;28;19925;-71
2022/07/24 05:07:29;;;;;;;;;;;15.90;99.90;;;;;;4996458;28;19955;-71
2022/07/24 05:09:55;;;;;;;;;;;15.90;99.90;;;;;;5018970;28;19960;-71
2022/07/24 05:12:20;;;;;;;;;;;16.00;99.90;;;;;;5017997;28;19928;-72
2022/07/24 05:14:46;;;;;;;;;;;16.00;99.90;;;;;;5008768;28;19934;-72
2022/07/24 05:17:11;;;;;;;;;;;16.00;99.90;;;;;;5014332;28;19921;-72
2022/07/24 05:19:37;;;;;;;;;;;16.00;99.90;;;;;;5023158;28;19922;-72
2022/07/24 05:22:03;;;;;;;;;;;16.10;99.90;;;;;;5012257;28;19921;-70
2022/07/24 05:24:29;;;;;;;;;;;16.10;99.90;;;;;;5012866;28;19982;-71
2022/07/24 05:26:54;;;;;;;;;;;16.10;99.90;;;;;;5013125;28;19929;-71
2022/07/24 05:29:20;;;;;;;;;;;16.20;99.90;;;;;;5009993;28;19928;-71
2022/07/24 05:31:46;;;;;;;;;;;16.30;99.90;;;;;;5010494;28;20423;-70
2022/07/24 05:34:12;;;;;;;;;;;16.40;99.90;;;;;;5011681;28;19922;-69
2022/07/24 05:36:37;;;;;;;;;;;16.50;99.90;;;;;;5012867;28;19952;-70
2022/07/24 05:39:03;;;;;;;;;;;16.60;99.90;;;;;;5008890;28;19929;-70
2022/07/24 05:41:29;;;;;;;;;;;16.80;99.90;;;;;;5027993;28;19951;-69
2022/07/24 05:43:54;;;;;;;;;;;16.80;99.90;;;;;;5010391;28;19921;-70
2022/07/24 05:46:20;;;;;;;;;;;16.90;99.90;;;;;;5012699;28;19925;-70
2022/07/24 05:48:45;;;;;;;;;;;16.90;99.90;;;;;;4991670;28;20384;-70
2022/07/24 05:51:11;;;;;;;;;;;16.90;99.90;;;;;;5012324;28;19925;-70
2022/07/24 05:53:37;;;;;;;;;;;17.00;99.90;;;;;;5012464;28;19925;-70
2022/07/24 05:56:03;;;;;;;;;;;17.10;99.90;;;;;;5012321;28;19929;-70
2022/07/24 05:58:28;;;;;;;;;;;17.10;99.90;;;;;;5014465;28;20402;-70
2022/07/24 06:00:54;;;;;;;;;;;17.20;99.90;;;;;;5005434;28;19929;-69
2022/07/24 06:03:19;;;;;;;;;;;17.20;99.90;;;;;;5009254;28;19928;-69
2022/07/24 06:05:45;;;;;;;;;;;17.30;99.90;;;;;;5014842;28;19937;-69
2022/07/24 06:08:11;;;;;;;;;;;17.30;99.90;;;;;;5009392;28;19929;-69
2022/07/24 06:10:36;;;;;;;;;;;17.40;99.90;;;;;;5010411;28;19930;-69
2022/07/24 06:13:02;;;;;;;;;;;17.50;99.90;;;;;;5015273;28;19967;-70
2022/07/24 06:15:28;;;;;;;;;;;17.60;99.90;;;;;;5011258;28;20037;-70
2022/07/24 06:17:54;;;;;;;;;;;17.70;99.90;;;;;;5013806;28;19921;-71
2022/07/24 06:20:20;;;;;;;;;;;17.80;99.90;;;;;;5011787;28;19929;-70
2022/07/24 06:22:45;;;;;;;;;;;17.80;99.90;;;;;;5011634;28;19929;-70
2022/07/24 06:25:11;;;;;;;;;;;18.00;99.90;;;;;;5009728;28;20011;-70
2022/07/24 06:27:44;;;;;;;;;;;18.00;99.90;;;;;;5009910;28;19922;-70
2022/07/24 06:30:13;;;;;;;;;;;18.20;99.90;;;;;;5005962;28;20412;-70
2022/07/24 06:32:39;;;;;;;;;;;18.20;99.90;;;;;;5010032;28;20295;-71
2022/07/24 06:35:05;;;;;;;;;;;18.40;99.90;;;;;;5011536;28;19929;-70
2022/07/24 06:37:30;;;;;;;;;;;18.40;99.90;;;;;;5010898;28;19937;-70
2022/07/24 06:39:56;;;;;;;;;;;18.60;99.90;;;;;;5010604;28;19983;-70
2022/07/24 06:42:22;;;;;;;;;;;18.60;99.90;;;;;;5007827;28;19922;-70
2022/07/24 06:44:47;;;;;;;;;;;18.70;99.90;;;;;;5008915;28;19922;-70
2022/07/24 06:47:13;;;;;;;;;;;18.80;99.90;;;;;;5009222;28;20364;-71
2022/07/24 06:49:39;;;;;;;;;;;18.90;99.90;;;;;;5009355;28;19940;-74
2022/07/24 06:52:05;;;;;;;;;;;19.00;99.90;;;;;;5005436;28;19921;-76
2022/07/24 06:54:30;;;;;;;;;;;19.10;99.90;;;;;;5005679;28;19979;-76
2022/07/24 06:56:56;;;;;;;;;;;19.20;99.90;;;;;;5011585;28;20012;-75
2022/07/24 06:59:21;;;;;;;;;;;19.20;99.90;;;;;;5007919;28;19929;-71
2022/07/24 07:01:47;;;;;;;;;;;19.30;99.90;;;;;;5027441;28;19925;-71
2022/07/24 07:04:12;;;;;;;;;;;19.40;99.90;;;;;;5008151;28;19932;-72
2022/07/24 07:06:38;;;;;;;;;;;19.60;99.90;;;;;;5013159;28;19925;-71
2022/07/24 07:09:03;;;;;;;;;;;19.70;99.90;;;;;;5004542;28;19968;-72
2022/07/24 07:11:29;;;;;;;;;;;19.80;99.90;;;;;;5008560;28;19925;-71
2022/07/24 07:13:54;;;;;;;;;;;19.90;99.90;;;;;;4988306;28;19983;-71
2022/07/24 07:16:20;;;;;;;;;;;20.00;99.90;;;;;;5009706;28;19933;-71
2022/07/24 07:18:46;;;;;;;;;;;20.10;99.90;;;;;;5006908;28;19929;-71
2022/07/24 07:21:11;;;;;;;;;;;20.20;99.90;;;;;;5006278;28;19921;-72
2022/07/24 07:23:37;;;;;;;;;;;20.30;99.90;;;;;;5007455;28;20281;-71
2022/07/24 07:26:02;;;;;;;;;;;20.40;99.90;;;;;;5002007;28;19936;-71
2022/07/24 07:28:28;;;;;;;;;;;20.50;99.90;;;;;;5003579;28;19922;-72
2022/07/24 07:30:54;;;;;;;;;;;20.70;99.90;;;;;;5008121;28;19929;-71
2022/07/24 07:33:19;;;;;;;;;;;20.80;99.90;;;;;;5009354;28;19932;-71
2022/07/24 07:35:45;;;;;;;;;;;20.90;99.90;;;;;;5007479;28;20004;-71
2022/07/24 07:38:10;;;;;;;;;;;21.10;99.90;;;;;;5001202;28;19926;-71
2022/07/24 07:40:36;;;;;;;;;;;21.20;99.90;;;;;;5006305;28;19928;-72
2022/07/24 07:43:02;;;;;;;;;;;21.40;99.90;;;;;;5003208;28;19963;-70
2022/07/24 07:45:27;;;;;;;;;;;21.40;99.90;;;;;;5010909;28;19921;-75
2022/07/24 07:47:53;;;;;;;;;;;21.60;99.90;;;;;;5008285;28;19925;-75
2022/07/24 07:50:18;;;;;;;;;;;21.70;99.90;;;;;;5010353;28;19948;-75
2022/07/24 07:52:44;;;;;;;;;;;21.80;99.90;;;;;;5008850;28;19921;-75
2022/07/24 07:55:10;;;;;;;;;;;21.90;99.90;;;;;;5009666;28;19944;-75
2022/07/24 07:57:35;;;;;;;;;;;21.90;99.90;;;;;;5011775;28;19960;-74
2022/07/24 08:00:01;;;;;;;;;;;22.00;99.90;;;;;;5015678;28;19960;-75
2022/07/24 08:02:26;;;;;;;;;;;22.10;99.90;;;;;;5013644;28;19929;-75
2022/07/24 08:04:52;;;;;;;;;;;22.10;99.90;;;;;;4993600;28;19963;-74
2022/07/24 08:07:17;;;;;;;;;;;22.20;99.90;;;;;;5003856;28;20005;-75
2022/07/24 08:09:45;;;;;;;;;;;22.30;99.90;;;;;;5014952;28;19925;-75
2022/07/24 08:12:11;;;;;;;;;;;22.40;99.90;;;;;;4989715;28;19957;-75
2022/07/24 08:14:36;;;;;;;;;;;22.40;99.90;;;;;;5012351;28;19979;-75
2022/07/24 08:17:02;;;;;;;;;;;22.50;99.90;;;;;;5013754;28;19973;-75
2022/07/24 08:19:28;;;;;;;;;;;22.60;99.90;;;;;;5010918;28;19922;-76
2022/07/24 08:21:54;;;;;;;;;;;22.70;99.90;;;;;;5010095;28;19935;-72
2022/07/24 08:24:22;;;;;;;;;;;22.80;99.90;;;;;;4989792;28;19928;-71
2022/07/24 08:26:48;;;;;;;;;;;23.00;99.90;;;;;;5008849;28;19921;-72
2022/07/24 08:29:14;;;;;;;;;;;23.20;99.90;;;;;;5009772;28;19941;-72
2022/07/24 08:31:39;;;;;;;;;;;23.40;99.90;;;;;;5012425;28;19933;-72
2022/07/24 08:34:05;;;;;;;;;;;23.60;99.90;;;;;;5013049;28;20295;-72
2022/07/24 08:36:31;;;;;;;;;;;23.80;99.90;;;;;;5009715;28;19930;-72
2022/07/24 08:38:56;;;;;;;;;;;23.80;99.90;;;;;;5010910;28;19944;-72
2022/07/24 08:41:22;;;;;;;;;;;23.60;99.90;;;;;;5013805;28;19960;-72
2022/07/24 08:43:51;;;;;;;;;;;23.60;99.90;;;;;;4997275;28;19956;-72
2022/07/24 08:46:16;;;;;;;;;;;23.40;99.90;;;;;;5002731;28;19925;-71
2022/07/24 08:48:43;;;;;;;;;;;23.30;99.90;;;;;;5007913;28;20349;-71
2022/07/24 08:51:09;;;;;;;;;;;23.50;99.90;;;;;;5011703;28;19947;-71
2022/07/24 08:53:34;;;;;;;;;;;23.60;99.90;;;;;;5010926;28;20359;-72
2022/07/24 08:56:00;;;;;;;;;;;23.60;99.90;;;;;;5012869;28;19925;-71
2022/07/24 08:58:25;;;;;;;;;;;23.60;99.90;;;;;;5012061;28;19928;-71
2022/07/24 09:00:51;;;;;;;;;;;23.70;99.90;;;;;;5006445;28;19972;-71
2022/07/24 09:03:17;;;;;;;;;;;23.70;99.90;;;;;;5012452;28;20332;-71
2022/07/24 09:05:55;;;;;;;;;;;23.80;99.90;;;;;;5011661;28;19925;-71
2022/07/24 09:08:21;;;;;;;;;;;23.90;99.90;;;;;;5010962;28;19922;-71
2022/07/24 09:10:54;;;;;;;;;;;24.10;99.90;;;;;;5008626;28;19932;-71
2022/07/24 09:13:20;;;;;;;;;;;24.20;99.90;;;;;;5012072;28;19922;-71
2022/07/24 09:15:46;;;;;;;;;;;24.30;99.90;;;;;;5012367;28;19930;-70
2022/07/24 09:18:32;;;;;;;;;;;24.40;99.90;;;;;;5009731;28;19926;-71
2022/07/24 09:20:59;;;;;;;;;;;24.40;99.90;;;;;;5007511;28;19926;-71
2022/07/24 09:23:24;;;;;;;;;;;24.50;99.90;;;;;;5006532;28;20396;-71
2022/07/24 09:25:51;;;;;;;;;;;24.60;99.90;;;;;;5012402;28;19928;-70
2022/07/24 09:28:17;;;;;;;;;;;24.70;99.90;;;;;;5009637;28;19968;-72
2022/07/24 09:30:43;;;;;;;;;;;24.90;99.90;;;;;;5006410;28;19965;-71
2022/07/24 09:33:12;;;;;;;;;;;25.00;98.70;;;;;;5010174;28;19930;-72
2022/07/24 09:35:39;;;;;;;;;;;25.20;98.30;;;;;;5012497;28;20524;-71
2022/07/24 09:38:15;;;;;;;;;;;25.30;99.50;;;;;;5011680;28;20442;-71
2022/07/24 09:40:44;;;;;;;;;;;25.40;99.90;;;;;;5007719;28;19922;-71
2022/07/24 09:43:38;;;;;;;;;;;25.50;99.40;;;;;;5009273;28;19964;-71
2022/07/24 09:46:05;;;;;;;;;;;25.80;99.90;;;;;;5008241;28;20283;-71
2022/07/24 09:48:32;;;;;;;;;;;26.10;99.90;;;;;;5011501;28;19972;-71
2022/07/24 09:51:02;;;;;;;;;;;26.30;98.50;;;;;;5001761;28;20594;-72
2022/07/24 09:53:30;;;;;;;;;;;26.30;98.30;;;;;;5001311;28;19983;-71
2022/07/24 09:56:06;;;;;;;;;;;26.30;98.80;;;;;;5010038;28;20380;-72
2022/07/24 09:58:33;;;;;;;;;;;26.30;96.50;;;;;;5005314;28;19980;-72
2022/07/24 10:01:00;;;;;;;;;;;26.60;96.60;;;;;;5011515;28;19954;-71
2022/07/24 10:03:27;;;;;;;;;;;26.70;94.90;;;;;;4994785;28;20319;-72
2022/07/24 10:05:54;;;;;;;;;;;26.50;95.40;;;;;;5007501;28;19921;-71
2022/07/24 10:08:20;;;;;;;;;;;26.50;96.60;;;;;;5016492;28;20327;-71
2022/07/24 10:10:46;;;;;;;;;;;26.60;95.60;;;;;;5011430;28;20012;-72
2022/07/24 10:13:12;;;;;;;;;;;26.80;95.50;;;;;;5010829;28;19944;-72
2022/07/24 10:15:47;;;;;;;;;;;26.90;93.70;;;;;;5009388;28;19925;-72
2022/07/24 10:18:15;;;;;;;;;;;26.90;92.20;;;;;;5007728;28;21239;-72
2022/07/24 10:20:42;;;;;;;;;;;26.80;88.80;;;;;;5010878;28;19944;-71
2022/07/24 10:23:08;;;;;;;;;;;26.40;89.60;;;;;;5010468;28;19929;-72
2022/07/24 10:25:46;;;;;;;;;;;26.30;89.90;;;;;;5010769;28;19921;-71
2022/07/24 10:28:14;;;;;;;;;;;26.20;87.90;;;;;;5011881;28;19922;-71
2022/07/24 10:30:40;;;;;;;;;;;26.40;88.80;;;;;;5004737;28;19925;-72
2022/07/24 10:33:06;;;;;;;;;;;26.30;85.30;;;;;;5010797;28;20407;-72
2022/07/24 10:35:34;;;;;;;;;;;26.60;87.10;;;;;;5010388;28;19921;-71
2022/07/24 10:38:08;;;;;;;;;;;26.70;88.70;;;;;;5011764;28;19921;-72
2022/07/24 10:40:33;;;;;;;;;;;26.90;90.90;;;;;;5009961;28;19926;-71
2022/07/24 10:43:08;;;;;;;;;;;26.90;86.00;;;;;;5008484;28;20305;-72
2022/07/24 10:45:35;;;;;;;;;;;26.80;86.90;;;;;;5007535;28;19930;-72
2022/07/24 10:48:19;;;;;;;;;;;27.10;89.70;;;;;;5008243;28;19921;-72
2022/07/24 10:50:57;;;;;;;;;;;27.50;87.50;;;;;;5004193;28;19929;-71
2022/07/24 10:53:27;;;;;;;;;;;27.40;87.20;;;;;;4999636;28;20041;-71
2022/07/24 10:56:13;;;;;;;;;;;27.20;83.60;;;;;;5026532;28;19928;-71
2022/07/24 10:58:55;;;;;;;;;;;27.20;82.10;;;;;;5008730;28;19925;-71
2022/07/24 11:01:28;;;;;;;;;;;27.00;86.70;;;;;;5002150;28;19921;-71
2022/07/24 11:03:54;;;;;;;;;;;27.00;81.20;;;;;;5000661;28;20015;-72
2022/07/24 11:06:37;;;;;;;;;;;27.40;88.30;;;;;;5004922;28;19981;-71
2022/07/24 11:09:03;;;;;;;;;;;27.60;87.70;;;;;;5011790;28;19928;-71
2022/07/24 11:11:28;;;;;;;;;;;27.40;79.00;;;;;;5007550;28;19921;-71
2022/07/24 11:14:02;;;;;;;;;;;27.20;84.20;;;;;;5008844;28;20411;-71
2022/07/24 11:16:28;;;;;;;;;;;27.20;87.30;;;;;;5004568;28;19929;-72
2022/07/24 11:18:54;;;;;;;;;;;27.40;88.20;;;;;;5003697;28;19921;-71
2022/07/24 11:21:30;;;;;;;;;;;27.70;88.80;;;;;;4989291;28;20273;-70
2022/07/24 11:24:17;;;;;;;;;;;28.00;86.90;;;;;;5006151;28;19922;-72
2022/07/24 11:26:42;;;;;;;;;;;28.10;80.60;;;;;;4984598;28;19936;-71
2022/07/24 11:29:12;;;;;;;;;;;27.80;81.20;;;;;;5007516;28;19929;-72
2022/07/24 11:31:37;;;;;;;;;;;28.20;86.50;;;;;;5012613;28;19925;-71
2022/07/24 11:34:04;;;;;;;;;;;28.50;87.10;;;;;;5006247;28;20163;-70
2022/07/24 11:36:29;;;;;;;;;;;28.40;81.50;;;;;;5004370;28;19925;-72
2022/07/24 11:38:55;;;;;;;;;;;28.40;83.50;;;;;;5008616;28;20355;-72
2022/07/24 11:41:20;;;;;;;;;;;28.40;76.20;;;;;;5011535;28;19921;-72
2022/07/24 11:43:52;;;;;;;;;;;28.60;77.60;;;;;;5010379;28;19925;-69
2022/07/24 11:46:33;;;;;;;;;;;28.60;78.40;;;;;;5002897;28;19922;-72
2022/07/24 11:49:06;;;;;;;;;;;28.70;80.30;;;;;;5007314;28;19940;-72
2022/07/24 11:51:32;;;;;;;;;;;28.90;81.00;;;;;;5010958;28;20071;-70
2022/07/24 11:53:57;;;;;;;;;;;29.10;82.90;;;;;;5004518;28;20384;-72
2022/07/24 11:56:23;;;;;;;;;;;29.30;81.00;;;;;;5004184;28;19921;-72
2022/07/24 11:58:48;;;;;;;;;;;29.40;79.70;;;;;;5003964;28;20010;-72
2022/07/24 12:01:21;;;;;;;;;;;29.40;73.40;;;;;;5003181;28;20427;-72
2022/07/24 12:03:50;;;;;;;;;;;29.20;71.00;;;;;;5009786;28;19925;-72
2022/07/24 12:06:17;;;;;;;;;;;28.80;71.80;;;;;;5007450;28;19921;-72
2022/07/24 12:08:43;;;;;;;;;;;29.10;73.80;;;;;;5010492;28;19925;-72
2022/07/24 12:11:08;;;;;;;;;;;29.10;73.40;;;;;;5008250;28;20003;-77
2022/07/24 12:13:34;;;;;;;;;;;29.30;70.80;;;;;;5008824;28;19948;-79
2022/07/24 12:16:00;;;;;;;;;;;29.30;69.70;;;;;;4984972;28;19928;-77
2022/07/24 12:18:25;;;;;;;;;;;29.20;74.50;;;;;;5007151;28;19929;-77
2022/07/24 12:20:51;;;;;;;;;;;29.00;69.00;;;;;;5010573;28;19921;-78
2022/07/24 12:23:18;;;;;;;;;;;29.00;67.50;;;;;;5007625;28;20386;-77
2022/07/24 12:25:44;;;;;;;;;;;28.80;62.60;;;;;;5009690;28;19952;-77
2022/07/24 12:28:11;;;;;;;;;;;29.00;69.60;;;;;;5010538;28;19930;-73
2022/07/24 12:30:41;;;;;;;;;;;29.10;68.90;;;;;;5010415;28;20335;-77
2022/07/24 12:33:19;;;;;;;;;;;29.40;66.30;;;;;;5011453;28;20336;-77
2022/07/24 12:35:55;;;;;;;;;;;29.60;66.00;;;;;;5010666;28;20582;-77
2022/07/24 12:38:25;;;;;;;;;;;29.80;61.80;;;;;;5009045;28;20384;-77
2022/07/24 12:40:50;;;;;;;;;;;29.90;65.40;;;;;;5005949;28;20499;-78
2022/07/24 12:43:18;;;;;;;;;;;30.10;63.90;;;;;;5013703;28;19955;-78
2022/07/24 12:45:44;;;;;;;;;;;30.20;64.30;;;;;;5007183;28;20391;-78
2022/07/24 12:48:20;;;;;;;;;;;30.10;59.90;;;;;;5010155;28;20048;-78
2022/07/24 12:50:59;;;;;;;;;;;29.90;61.30;;;;;;5018834;28;19926;-77
2022/07/24 12:53:25;;;;;;;;;;;29.60;63.50;;;;;;5014598;28;19933;-78
2022/07/24 12:56:05;;;;;;;;;;;29.80;64.30;;;;;;5013439;28;19929;-78
2022/07/24 12:58:50;;;;;;;;;;;29.70;61.40;;;;;;5017885;28;19921;-78
2022/07/24 13:01:15;;;;;;;;;;;29.80;62.20;;;;;;5014788;28;19928;-77
2022/07/24 13:03:42;;;;;;;;;;;29.90;63.40;;;;;;5012103;28;19926;-77
2022/07/24 13:06:08;;;;;;;;;;;29.80;60.70;;;;;;5018470;28;19928;-78
2022/07/24 13:08:34;;;;;;;;;;;30.00;64.50;;;;;;5023071;28;19921;-79
2022/07/24 13:10:59;;;;;;;;;;;30.20;63.90;;;;;;5013655;28;19965;-79
2022/07/24 13:13:25;;;;;;;;;;;30.40;62.30;;;;;;4993382;28;19933;-78
2022/07/24 13:15:51;;;;;;;;;;;30.60;65.50;;;;;;5015147;28;19925;-78
2022/07/24 13:18:19;;;;;;;;;;;30.30;62.40;;;;;;4997895;28;20008;-77
2022/07/24 13:20:44;;;;;;;;;;;30.00;61.80;;;;;;5021918;28;19989;-78
2022/07/24 13:23:10;;;;;;;;;;;30.20;63.70;;;;;;5018754;28;19921;-77
2022/07/24 13:25:35;;;;;;;;;;;30.40;63.80;;;;;;4993268;28;19933;-77
2022/07/24 13:28:01;;;;;;;;;;;30.60;65.30;;;;;;4992264;28;19972;-78
2022/07/24 13:30:27;;;;;;;;;;;30.60;61.90;;;;;;5010797;28;19990;-78
2022/07/24 13:32:52;;;;;;;;;;;30.50;62.60;;;;;;5002762;28;19947;-78
2022/07/24 13:35:18;;;;;;;;;;;30.70;66.80;;;;;;5010167;28;19933;-78
2022/07/24 13:37:43;;;;;;;;;;;31.00;65.60;;;;;;5017865;28;19922;-77
2022/07/24 13:40:11;;;;;;;;;;;31.40;65.90;;;;;;4992914;28;19925;-76
2022/07/24 13:42:37;;;;;;;;;;;31.10;59.10;;;;;;5003969;28;20467;-77
2022/07/24 13:45:03;;;;;;;;;;;30.60;59.50;;;;;;5009103;28;20001;-78
2022/07/24 13:47:29;;;;;;;;;;;30.50;59.70;;;;;;5014645;28;19960;-78
2022/07/24 13:49:54;;;;;;;;;;;30.70;62.00;;;;;;5013999;28;19932;-77
2022/07/24 13:52:20;;;;;;;;;;;30.80;65.40;;;;;;4996474;28;20346;-77
2022/07/24 13:54:46;;;;;;;;;;;30.20;64.20;;;;;;4992231;28;19921;-77
2022/07/24 13:57:13;;;;;;;;;;;30.10;62.00;;;;;;5004181;28;19999;-77
2022/07/24 13:59:39;;;;;;;;;;;30.10;64.50;;;;;;5008481;28;19926;-77
2022/07/24 14:02:05;;;;;;;;;;;30.60;66.50;;;;;;5008562;28;19929;-77
2022/07/24 14:04:30;;;;;;;;;;;30.70;64.80;;;;;;5010307;28;19922;-77
2022/07/24 14:06:57;;;;;;;;;;;30.50;62.20;;;;;;5005051;28;20011;-77
2022/07/24 14:09:23;;;;;;;;;;;30.50;66.50;;;;;;5002673;28;20406;-78
2022/07/24 14:11:49;;;;;;;;;;;30.70;65.50;;;;;;5136815;23;19935;-77
2022/07/24 14:14:15;;;;;;;;;;;30.90;62.90;;;;;;5020796;28;19929;-77